»·PEaware :: UAL569 KPDX-KSFO

UAL569 :: KPDX-KSFO

FLIGHT INFORMATION

Flight Status: Arrived
Operator:
United Airlines
More flights by this operator :: More flights under this callsign
Pilot: Brice B. (24277)
Aircraft: BOEING 737-200
(B732)
More flights by this aircraft type
Origin: KPDX Portland Intl
United States
Destination: KSFO San Francisco Intl
United States
More flights between these airports :: More routes between these airports
Route: PTLD1 EUG J143 RBG STINS3
File this flight plan on PilotEdge
Remarks:
Altitude:
(Current/Filed)
31,000ft
Speed:
(Current/Filed)
430kts
Departed: 12-Sep-19 01:24 PM
Arrived: 12-Sep-19 02:52 PM
Distance/Time
Traveled:
478nm/1:28
Distance/Time
To Go:
Arrived

Flight Plot

Page will automatically refresh every two minutes.

Flight plan parsing failed; only flown route is shown


Map Options




Map Legend


Flown Route
Filed Route
Departure Airport
Arrival Airport
Navaid (VOR, NDB)
Fix

Horizontal Profiles

Position Reports

Time Latitude Longitude Heading Altitude Ground
Speed
12-Sep-19 12:50 45.590036 -122.591063 208 38ft 0kts
12-Sep-19 12:51 45.590036 -122.591063 208 38ft 0kts
12-Sep-19 12:52 45.590036 -122.591063 208 38ft 0kts
12-Sep-19 12:53 45.590036 -122.591063 208 38ft 0kts
12-Sep-19 12:54 45.590036 -122.591063 208 38ft 0kts
12-Sep-19 12:55 45.590036 -122.591063 208 38ft 0kts
12-Sep-19 12:56 45.590036 -122.591063 208 38ft 0kts
12-Sep-19 12:57 45.590036 -122.591063 208 38ft 0kts
12-Sep-19 12:58 45.590036 -122.591063 208 38ft 0kts
12-Sep-19 12:59 45.590036 -122.591063 208 38ft 0kts
12-Sep-19 13:00 45.590036 -122.591063 208 38ft 0kts
12-Sep-19 13:01 45.590036 -122.591063 208 38ft 0kts
12-Sep-19 13:02 45.590036 -122.591063 208 38ft 0kts
12-Sep-19 13:03 45.590036 -122.591063 208 38ft 0kts
12-Sep-19 13:04 45.590036 -122.591063 208 38ft 0kts
12-Sep-19 13:05 45.590036 -122.591063 208 38ft 0kts
12-Sep-19 13:06 45.590036 -122.591063 208 38ft 0kts
12-Sep-19 13:07 45.590036 -122.591063 208 38ft 0kts
12-Sep-19 13:08 45.590036 -122.591063 208 38ft 0kts
12-Sep-19 13:09 45.590036 -122.591063 208 38ft 0kts
12-Sep-19 13:10 45.590036 -122.591063 208 38ft 0kts
12-Sep-19 13:11 45.590036 -122.591063 208 38ft 0kts
12-Sep-19 13:12 45.590036 -122.591063 208 38ft 0kts
12-Sep-19 13:13 45.590036 -122.591063 208 38ft 0kts
12-Sep-19 13:14 45.590036 -122.591063 208 38ft 0kts
12-Sep-19 13:15 45.590296 -122.590863 207 38ft 2kts
12-Sep-19 13:16 45.590633 -122.590278 295 38ft 1kts
12-Sep-19 13:17 45.590524 -122.590016 299 38ft 0kts
12-Sep-19 13:18 45.590524 -122.590016 299 38ft 0kts
12-Sep-19 13:19 45.590543 -122.590064 299 38ft 3kts
12-Sep-19 13:20 45.592048 -122.593918 298 38ft 12kts
12-Sep-19 13:21 45.593551 -122.597788 301 38ft 9kts
12-Sep-19 13:22 45.594586 -122.597301 44 38ft 6kts
12-Sep-19 13:23 45.587962 -122.578031 118 86ft 160kts
12-Sep-19 13:24 45.560809 -122.510662 119 2300ft 237kts
12-Sep-19 13:25 45.523421 -122.418207 118 4654ft 270kts
12-Sep-19 13:26 45.461077 -122.417598 224 5895ft 274kts
12-Sep-19 13:27 45.405643 -122.491246 224 7885ft 278kts
12-Sep-19 13:28 45.353210 -122.569891 251 10881ft 279kts
12-Sep-19 13:29 45.362485 -122.679428 244 13237ft 289kts
12-Sep-19 13:30 45.308173 -122.764992 225 15470ft 297kts
12-Sep-19 13:31 45.230152 -122.807566 193 16962ft 327kts
12-Sep-19 13:32 45.136586 -122.833800 194 18171ft 354kts
12-Sep-19 13:33 45.040097 -122.866435 197 19766ft 362kts
12-Sep-19 13:34 44.941455 -122.907662 199 21328ft 375kts
12-Sep-19 13:35 44.841067 -122.952848 199 22827ft 383kts
12-Sep-19 13:36 44.739037 -122.994105 197 24355ft 386kts
12-Sep-19 13:37 44.633817 -123.031841 196 25494ft 394kts
12-Sep-19 13:38 44.526775 -123.069618 197 26536ft 400kts
12-Sep-19 13:39 44.418569 -123.110467 198 27452ft 406kts
12-Sep-19 13:40 44.309146 -123.152388 198 28233ft 412kts
12-Sep-19 13:41 44.198017 -123.193877 197 28959ft 416kts
12-Sep-19 13:42 44.083055 -123.211863 198 29846ft 414kts
12-Sep-19 13:43 43.972180 -123.259123 190 30335ft 423kts
12-Sep-19 13:44 43.860624 -123.206095 165 31113ft 433kts
12-Sep-19 13:45 43.743205 -123.190582 188 31183ft 423kts
12-Sep-19 13:46 43.629041 -123.222957 199 31179ft 417kts
12-Sep-19 13:47 43.518544 -123.265692 196 31180ft 415kts
12-Sep-19 13:48 43.403790 -123.287091 192 31181ft 417kts
12-Sep-19 13:49 43.291564 -123.322699 195 31180ft 415kts
12-Sep-19 13:50 43.178025 -123.353694 194 31180ft 417kts
12-Sep-19 13:51 43.062535 -123.343839 190 31186ft 418kts
12-Sep-19 13:52 42.944661 -123.341339 184 31244ft 426kts
12-Sep-19 13:53 42.826169 -123.344175 185 31297ft 430kts
12-Sep-19 13:54 42.706199 -123.340412 176 31286ft 431kts
12-Sep-19 13:55 42.587800 -123.328535 183 31289ft 426kts
12-Sep-19 13:56 42.469700 -123.331212 185 31281ft 427kts
12-Sep-19 13:57 42.350893 -123.336593 185 31277ft 428kts
12-Sep-19 13:58 42.231730 -123.337866 183 31278ft 430kts
12-Sep-19 13:59 42.112512 -123.333891 181 31277ft 430kts
12-Sep-19 14:00 41.993225 -123.326745 181 31222ft 432kts
12-Sep-19 14:01 41.872307 -123.319462 181 31177ft 438kts
12-Sep-19 14:02 41.750614 -123.315211 183 31191ft 438kts
12-Sep-19 14:03 41.629294 -123.315880 184 31227ft 433kts
12-Sep-19 14:04 41.509737 -123.321295 186 31205ft 431kts
12-Sep-19 14:05 41.390035 -123.331008 187 31176ft 432kts
12-Sep-19 14:06 41.270655 -123.344443 189 31180ft 431kts
12-Sep-19 14:07 41.150558 -123.335672 176 31181ft 437kts
12-Sep-19 14:08 41.030113 -123.314609 177 31178ft 439kts
12-Sep-19 14:09 40.906862 -123.296742 180 31183ft 453kts
12-Sep-19 14:10 40.782705 -123.291159 185 31180ft 453kts
12-Sep-19 14:11 40.658674 -123.298548 189 31178ft 442kts
12-Sep-19 14:12 40.536242 -123.312755 190 31182ft 447kts
12-Sep-19 14:13 40.411426 -123.323416 186 31180ft 452kts
12-Sep-19 14:14 40.285877 -123.321445 181 31180ft 453kts
12-Sep-19 14:15 40.161072 -123.304432 176 31180ft 450kts
12-Sep-19 14:16 40.038148 -123.285056 180 31180ft 445kts
12-Sep-19 14:17 39.913600 -123.282228 187 31138ft 449kts
12-Sep-19 14:18 39.788884 -123.287649 181 31093ft 454kts
12-Sep-19 14:19 39.663208 -123.281738 185 31098ft 450kts
12-Sep-19 14:20 39.538873 -123.286140 182 31098ft 451kts
12-Sep-19 14:21 39.413830 -123.278197 184 31100ft 450kts
12-Sep-19 14:23 39.288227 -123.279555 185 31066ft 453kts
12-Sep-19 14:24 39.162460 -123.276893 183 31069ft 449kts
12-Sep-19 14:25 39.039444 -123.262600 161 28734ft 456kts
12-Sep-19 14:26 38.926776 -123.194993 156 26988ft 441kts
12-Sep-19 14:27 38.819264 -123.131546 160 25549ft 404kts
12-Sep-19 14:28 38.711572 -123.103267 172 23613ft 391kts
12-Sep-19 14:29 38.606015 -123.081679 168 21724ft 381kts
12-Sep-19 14:30 38.506118 -123.044759 160 19914ft 371kts
12-Sep-19 14:31 38.410981 -122.997972 159 18116ft 362kts
12-Sep-19 14:32 38.316502 -122.957625 163 16464ft 355kts
12-Sep-19 14:33 38.223011 -122.923334 163 15041ft 347kts
12-Sep-19 14:34 38.130373 -122.887491 162 14988ft 350kts
12-Sep-19 14:35 38.037136 -122.851215 163 14989ft 349kts
12-Sep-19 14:36 37.944829 -122.815482 162 14991ft 347kts
12-Sep-19 14:37 37.855717 -122.771492 145 14690ft 341kts
12-Sep-19 14:38 37.791152 -122.687591 129 12969ft 337kts
12-Sep-19 14:39 37.735577 -122.596557 124 11437ft 329kts
12-Sep-19 14:40 37.689064 -122.506344 122 10986ft 289kts
12-Sep-19 14:41 37.644691 -122.421518 123 10996ft 297kts
12-Sep-19 14:42 37.599756 -122.337251 124 10981ft 286kts
12-Sep-19 14:43 37.548791 -122.258142 149 10918ft 292kts
12-Sep-19 14:43 37.489567 -122.219203 153 9878ft 289kts
12-Sep-19 14:45 37.410953 -122.160431 116 8361ft 281kts
12-Sep-19 14:46 37.442973 -122.085518 25 6766ft 276kts
12-Sep-19 14:46 37.501261 -122.100526 321 5002ft 274kts
12-Sep-19 14:47 37.538439 -122.179862 296 4007ft 238kts
12-Sep-19 14:49 37.574182 -122.262639 297 1654ft 224kts
12-Sep-19 14:49 37.594950 -122.313247 302 886ft 172kts
12-Sep-19 14:50 37.613331 -122.356670 300 82ft 132kts
12-Sep-19 14:51 37.621900 -122.377439 286 22ft 25kts
12-Sep-19 14:52 37.622264 -122.382059 258 22ft 8kts
12-Sep-19 14:53 37.620743 -122.384600 298 22ft 11kts
12-Sep-19 14:54 37.620208 -122.386541 287 22ft 3kts
12-Sep-19 14:55 37.620244 -122.386678 288 22ft 0kts
12-Sep-19 14:56 37.620244 -122.386678 288 22ft 0kts
12-Sep-19 14:57 37.620244 -122.386678 288 22ft 0kts
12-Sep-19 14:58 37.620244 -122.386678 288 22ft 0kts

Navigation Log

Ident Type
Flight plan parsing failed, navigation log unavailable